weather.gov     
National Weather Service

Terminal Aerodrome Forecast
NWS Homepage
This page is being discontinued on March 12, 2014.
The same data is available at this site. Please update your bookmarks.
Thank you, and we apologize for the inconvenience.
Please send an email to SR-SRH.Webmaster@noaa.gov with any concerns.


Current Version
Previous Version:    01  02  03  04  05  06  07  08  09  10  11  12  13  14  15  16  17  18  19  20  21  22  23  24  25  26  27  28  29  
[Printable]
253
FTUS43 KDTX 232338
TAFFNT
TAF
KFNT 232338Z 2400/2424 13010KT 6SM -SHRA SCT025 OVC040
      TEMPO 2400/2402 4SM -SHRA BKN025
     FM240200 13010KT 4SM -SHRA BR SCT008 OVC025
      TEMPO 2402/2405 2SM RA BR BKN008
     FM240500 16015KT 2SM RA BR OVC004
     FM241200 21015G25KT 4SM -SHRA OVC008
     FM241500 21020G30KT 6SM -SHRA SCT025 BKN040
     FM241900 23030G40KT P6SM OVC025=


253
FTUS43 KDTX 232338
TAFFNT
TAF
KFNT 232338Z 2400/2424 13010KT 6SM -SHRA SCT025 OVC040
      TEMPO 2400/2402 4SM -SHRA BKN025
     FM240200 13010KT 4SM -SHRA BR SCT008 OVC025
      TEMPO 2402/2405 2SM RA BR BKN008
     FM240500 16015KT 2SM RA BR OVC004
     FM241200 21015G25KT 4SM -SHRA OVC008
     FM241500 21020G30KT 6SM -SHRA SCT025 BKN040
     FM241900 23030G40KT P6SM OVC025=




U.S. Dept. of Commerce
NOAA National Weather Service
1325 East West Highway
Silver Spring, MD 20910
E-mail: w-nws.webmaster@noaa.gov
Page last modified: May 16, 2007
NATIONAL WEATHER SERVICE: for Safety, for Work, for Fun - FOR LIFE